sensor_id;sensor_type;location;lat;lon;timestamp;P1;durP1;ratioP1;P2;durP2;ratioP2
46721;SDS011;32455;43.430;23.136;2023-07-20T14:46:35;5.40;;;1.92;;
46721;SDS011;32455;43.430;23.136;2023-07-20T14:49:20;3.30;;;1.90;;
46721;SDS011;32455;43.430;23.136;2023-07-20T14:52:06;4.82;;;1.73;;
46721;SDS011;32455;43.430;23.136;2023-07-20T14:54:51;5.68;;;1.83;;
46721;SDS011;32455;43.430;23.136;2023-07-20T14:57:36;5.03;;;2.17;;
46721;SDS011;32455;43.430;23.136;2023-07-20T15:00:23;6.53;;;2.35;;
46721;SDS011;32455;43.430;23.136;2023-07-20T15:03:08;6.97;;;2.03;;
46721;SDS011;32455;43.430;23.136;2023-07-20T15:05:54;4.13;;;1.90;;
46721;SDS011;32455;43.430;23.136;2023-07-20T15:08:40;5.75;;;2.17;;
46721;SDS011;32455;43.430;23.136;2023-07-20T15:11:27;5.43;;;2.28;;
46721;SDS011;32455;43.430;23.136;2023-07-20T15:14:12;5.40;;;2.00;;
46721;SDS011;32455;43.430;23.136;2023-07-20T15:16:58;4.20;;;2.30;;
46721;SDS011;32455;43.430;23.136;2023-07-20T15:19:43;3.22;;;2.03;;
46721;SDS011;32455;43.430;23.136;2023-07-20T15:22:28;5.65;;;2.60;;
46721;SDS011;32455;43.430;23.136;2023-07-20T15:25:14;4.28;;;2.42;;
46721;SDS011;32455;43.430;23.136;2023-07-20T15:28:00;5.32;;;2.58;;
46721;SDS011;32455;43.430;23.136;2023-07-20T15:30:45;5.95;;;2.42;;
46721;SDS011;32455;43.430;23.136;2023-07-20T15:33:30;3.08;;;2.00;;
46721;SDS011;32455;43.430;23.136;2023-07-20T15:36:18;6.00;;;2.47;;
46721;SDS011;32455;43.430;23.136;2023-07-20T15:39:04;2.78;;;1.80;;
46721;SDS011;32455;43.430;23.136;2023-07-20T15:41:50;4.65;;;2.40;;
46721;SDS011;32455;43.430;23.136;2023-07-20T15:44:36;8.10;;;2.70;;
46721;SDS011;32455;43.430;23.136;2023-07-20T15:47:22;3.92;;;2.47;;
46721;SDS011;32455;43.430;23.136;2023-07-20T15:50:09;8.88;;;2.58;;
46721;SDS011;32455;43.430;23.136;2023-07-20T15:52:55;7.40;;;2.58;;
46721;SDS011;32455;43.430;23.136;2023-07-20T15:55:40;6.03;;;2.78;;
46721;SDS011;32455;43.430;23.136;2023-07-20T15:58:26;6.50;;;2.70;;
46721;SDS011;32455;43.430;23.136;2023-07-20T16:01:11;6.97;;;2.78;;
46721;SDS011;32455;43.430;23.136;2023-07-20T16:03:57;7.90;;;3.08;;
46721;SDS011;32455;43.430;23.136;2023-07-20T16:06:42;6.75;;;2.97;;
46721;SDS011;32455;43.430;23.136;2023-07-20T16:09:27;7.10;;;3.30;;
46721;SDS011;32455;43.430;23.136;2023-07-20T16:12:13;6.32;;;2.78;;
46721;SDS011;32455;43.430;23.136;2023-07-20T16:14:59;7.30;;;3.20;;
46721;SDS011;32455;43.430;23.136;2023-07-20T16:17:44;8.00;;;3.63;;
46721;SDS011;32455;43.430;23.136;2023-07-20T16:20:30;7.22;;;3.50;;
46721;SDS011;32455;43.430;23.136;2023-07-20T16:23:15;5.07;;;3.20;;
46721;SDS011;32455;43.430;23.136;2023-07-20T16:26:01;6.05;;;3.42;;
46721;SDS011;32455;43.430;23.136;2023-07-20T16:28:48;6.88;;;3.10;;
46721;SDS011;32455;43.430;23.136;2023-07-20T16:31:34;8.38;;;3.10;;
46721;SDS011;32455;43.430;23.136;2023-07-20T16:34:19;9.55;;;3.20;;
46721;SDS011;32455;43.430;23.136;2023-07-20T16:37:04;6.43;;;3.00;;
46721;SDS011;32455;43.430;23.136;2023-07-20T16:39:52;6.63;;;3.75;;
46721;SDS011;32455;43.430;23.136;2023-07-20T16:42:38;5.40;;;3.25;;
46721;SDS011;32455;43.430;23.136;2023-07-20T16:45:23;5.82;;;3.05;;
46721;SDS011;32455;43.430;23.136;2023-07-20T16:48:09;4.18;;;3.03;;
46721;SDS011;32455;43.430;23.136;2023-07-20T16:50:55;6.00;;;3.40;;
46721;SDS011;32455;43.430;23.136;2023-07-20T16:53:41;9.00;;;3.28;;
46721;SDS011;32455;43.430;23.136;2023-07-20T16:56:27;7.82;;;3.20;;
46721;SDS011;32455;43.430;23.136;2023-07-20T16:59:13;6.57;;;3.35;;
46721;SDS011;32455;43.430;23.136;2023-07-20T17:01:58;6.15;;;3.80;;
46721;SDS011;32455;43.430;23.136;2023-07-20T17:04:46;6.38;;;3.40;;
46721;SDS011;32455;43.430;23.136;2023-07-20T17:07:33;8.65;;;4.38;;
46721;SDS011;32455;43.430;23.136;2023-07-20T17:10:18;8.40;;;3.72;;
46721;SDS011;32455;43.430;23.136;2023-07-20T17:13:04;6.57;;;3.83;;
46721;SDS011;32455;43.430;23.136;2023-07-20T17:15:49;5.68;;;3.58;;
46721;SDS011;32455;43.430;23.136;2023-07-20T17:18:35;11.43;;;4.32;;
46721;SDS011;32455;43.430;23.136;2023-07-20T17:21:20;6.75;;;3.95;;
46721;SDS011;32455;43.430;23.136;2023-07-20T17:24:06;7.97;;;4.53;;
46721;SDS011;32455;43.430;23.136;2023-07-20T17:26:52;5.90;;;4.30;;
46721;SDS011;32455;43.430;23.136;2023-07-20T17:29:37;7.72;;;4.32;;
46721;SDS011;32455;43.430;23.136;2023-07-20T17:32:22;7.82;;;4.05;;
46721;SDS011;32455;43.430;23.136;2023-07-20T17:35:08;18.70;;;9.93;;
46721;SDS011;32455;43.430;23.136;2023-07-20T17:37:56;11.95;;;6.30;;
46721;SDS011;32455;43.430;23.136;2023-07-20T17:40:42;6.82;;;4.38;;
46721;SDS011;32455;43.430;23.136;2023-07-20T17:43:27;10.88;;;4.43;;
46721;SDS011;32455;43.430;23.136;2023-07-20T17:46:13;7.32;;;4.53;;
46721;SDS011;32455;43.430;23.136;2023-07-20T17:48:59;10.98;;;4.85;;
46721;SDS011;32455;43.430;23.136;2023-07-20T17:51:47;9.88;;;4.88;;
46721;SDS011;32455;43.430;23.136;2023-07-20T17:54:35;6.60;;;4.20;;
46721;SDS011;32455;43.430;23.136;2023-07-20T17:57:20;9.35;;;4.85;;
46721;SDS011;32455;43.430;23.136;2023-07-20T18:00:06;5.35;;;4.75;;
46721;SDS011;32455;43.430;23.136;2023-07-20T18:02:54;10.10;;;5.07;;
46721;SDS011;32455;43.430;23.136;2023-07-20T18:05:40;7.57;;;5.30;;
46721;SDS011;32455;43.430;23.136;2023-07-20T18:08:25;9.25;;;5.40;;
46721;SDS011;32455;43.430;23.136;2023-07-20T18:11:11;7.88;;;5.25;;
46721;SDS011;32455;43.430;23.136;2023-07-20T18:13:56;6.55;;;5.20;;
46721;SDS011;32455;43.430;23.136;2023-07-20T18:16:41;8.10;;;5.00;;
46721;SDS011;32455;43.430;23.136;2023-07-20T18:19:27;8.40;;;5.78;;
46721;SDS011;32455;43.430;23.136;2023-07-20T18:22:14;6.57;;;5.22;;
46721;SDS011;32455;43.430;23.136;2023-07-20T18:25:00;8.02;;;5.78;;
46721;SDS011;32455;43.430;23.136;2023-07-20T18:27:46;6.35;;;5.38;;
46721;SDS011;32455;43.430;23.136;2023-07-20T18:30:33;5.90;;;5.13;;
46721;SDS011;32455;43.430;23.136;2023-07-20T18:33:19;9.50;;;5.65;;
46721;SDS011;32455;43.430;23.136;2023-07-20T18:36:04;7.15;;;5.65;;
46721;SDS011;32455;43.430;23.136;2023-07-20T18:38:51;10.90;;;5.75;;
46721;SDS011;32455;43.430;23.136;2023-07-20T18:41:37;11.45;;;6.68;;
46721;SDS011;32455;43.430;23.136;2023-07-20T18:44:23;7.60;;;5.85;;
46721;SDS011;32455;43.430;23.136;2023-07-20T18:47:09;10.48;;;6.93;;
46721;SDS011;32455;43.430;23.136;2023-07-20T18:49:54;8.38;;;5.93;;
46721;SDS011;32455;43.430;23.136;2023-07-20T18:52:41;7.25;;;5.90;;
46721;SDS011;32455;43.430;23.136;2023-07-20T18:55:27;10.52;;;6.53;;
46721;SDS011;32455;43.430;23.136;2023-07-20T18:58:14;11.35;;;5.68;;
46721;SDS011;32455;43.430;23.136;2023-07-20T19:01:00;10.40;;;6.40;;
46721;SDS011;32455;43.430;23.136;2023-07-20T19:03:46;7.82;;;5.85;;
46721;SDS011;32455;43.430;23.136;2023-07-20T19:06:31;7.63;;;5.95;;
46721;SDS011;32455;43.430;23.136;2023-07-20T19:09:17;6.25;;;5.65;;
46721;SDS011;32455;43.430;23.136;2023-07-20T19:12:03;8.20;;;5.70;;
46721;SDS011;32455;43.430;23.136;2023-07-20T19:14:49;7.55;;;5.57;;
46721;SDS011;32455;43.430;23.136;2023-07-20T19:17:35;8.95;;;5.90;;
46721;SDS011;32455;43.430;23.136;2023-07-20T19:20:20;8.95;;;6.10;;
46721;SDS011;32455;43.430;23.136;2023-07-20T19:23:05;7.15;;;5.68;;
46721;SDS011;32455;43.430;23.136;2023-07-20T19:25:50;9.88;;;7.00;;
46721;SDS011;32455;43.430;23.136;2023-07-20T19:28:36;8.60;;;6.10;;
46721;SDS011;32455;43.430;23.136;2023-07-20T19:31:21;11.85;;;6.38;;
46721;SDS011;32455;43.430;23.136;2023-07-20T19:34:06;7.47;;;6.30;;
46721;SDS011;32455;43.430;23.136;2023-07-20T19:36:52;7.32;;;6.00;;
46721;SDS011;32455;43.430;23.136;2023-07-20T19:39:38;8.82;;;6.28;;
46721;SDS011;32455;43.430;23.136;2023-07-20T19:42:23;12.85;;;6.68;;
46721;SDS011;32455;43.430;23.136;2023-07-20T19:45:09;7.90;;;6.53;;
46721;SDS011;32455;43.430;23.136;2023-07-20T19:47:54;8.65;;;5.80;;
46721;SDS011;32455;43.430;23.136;2023-07-20T19:50:43;7.13;;;5.63;;
46721;SDS011;32455;43.430;23.136;2023-07-20T19:53:31;8.95;;;5.72;;
46721;SDS011;32455;43.430;23.136;2023-07-20T19:56:16;6.28;;;5.47;;
46721;SDS011;32455;43.430;23.136;2023-07-20T19:59:01;6.55;;;5.47;;
46721;SDS011;32455;43.430;23.136;2023-07-20T20:01:46;7.82;;;6.20;;
46721;SDS011;32455;43.430;23.136;2023-07-20T20:04:32;8.30;;;5.07;;
46721;SDS011;32455;43.430;23.136;2023-07-20T20:07:17;10.05;;;5.20;;
46721;SDS011;32455;43.430;23.136;2023-07-20T20:10:05;7.78;;;5.40;;
46721;SDS011;32455;43.430;23.136;2023-07-20T20:12:51;7.50;;;5.13;;
46721;SDS011;32455;43.430;23.136;2023-07-20T20:15:39;10.38;;;5.55;;
46721;SDS011;32455;43.430;23.136;2023-07-20T20:18:25;11.52;;;4.88;;
46721;SDS011;32455;43.430;23.136;2023-07-20T20:21:13;13.05;;;4.88;;
46721;SDS011;32455;43.430;23.136;2023-07-20T20:23:59;8.93;;;5.03;;
46721;SDS011;32455;43.430;23.136;2023-07-20T20:26:45;8.80;;;4.70;;
46721;SDS011;32455;43.430;23.136;2023-07-20T20:29:31;10.23;;;5.78;;
46721;SDS011;32455;43.430;23.136;2023-07-20T20:32:16;7.68;;;4.72;;
46721;SDS011;32455;43.430;23.136;2023-07-20T20:35:02;8.70;;;4.65;;
46721;SDS011;32455;43.430;23.136;2023-07-20T20:37:49;5.43;;;4.57;;
46721;SDS011;32455;43.430;23.136;2023-07-20T20:40:34;5.70;;;4.32;;
46721;SDS011;32455;43.430;23.136;2023-07-20T20:43:21;10.57;;;4.80;;
46721;SDS011;32455;43.430;23.136;2023-07-20T20:46:06;9.88;;;4.57;;
46721;SDS011;32455;43.430;23.136;2023-07-20T20:48:57;7.25;;;4.47;;
46721;SDS011;32455;43.430;23.136;2023-07-20T20:51:43;7.30;;;4.57;;
46721;SDS011;32455;43.430;23.136;2023-07-20T20:54:29;6.35;;;4.40;;
46721;SDS011;32455;43.430;23.136;2023-07-20T20:57:14;7.70;;;4.25;;
46721;SDS011;32455;43.430;23.136;2023-07-20T21:00:01;6.82;;;4.00;;
46721;SDS011;32455;43.430;23.136;2023-07-20T21:02:46;5.75;;;4.18;;
46721;SDS011;32455;43.430;23.136;2023-07-20T21:05:34;7.20;;;4.35;;
46721;SDS011;32455;43.430;23.136;2023-07-20T21:08:21;5.95;;;4.35;;
46721;SDS011;32455;43.430;23.136;2023-07-20T21:11:08;6.45;;;4.25;;
46721;SDS011;32455;43.430;23.136;2023-07-20T21:13:54;5.60;;;4.22;;
46721;SDS011;32455;43.430;23.136;2023-07-20T21:16:40;7.25;;;4.03;;
46721;SDS011;32455;43.430;23.136;2023-07-20T21:19:25;8.98;;;4.43;;
46721;SDS011;32455;43.430;23.136;2023-07-20T21:22:11;9.65;;;4.70;;
46721;SDS011;32455;43.430;23.136;2023-07-20T21:24:56;6.78;;;4.30;;
46721;SDS011;32455;43.430;23.136;2023-07-20T21:27:42;6.90;;;4.95;;
46721;SDS011;32455;43.430;23.136;2023-07-20T21:30:28;7.07;;;4.55;;
46721;SDS011;32455;43.430;23.136;2023-07-20T21:33:13;7.50;;;4.25;;
46721;SDS011;32455;43.430;23.136;2023-07-20T21:35:59;5.47;;;4.45;;
46721;SDS011;32455;43.430;23.136;2023-07-20T21:38:44;6.68;;;4.25;;
46721;SDS011;32455;43.430;23.136;2023-07-20T21:41:29;9.48;;;4.80;;
46721;SDS011;32455;43.430;23.136;2023-07-20T21:44:14;6.95;;;4.25;;
46721;SDS011;32455;43.430;23.136;2023-07-20T21:47:00;8.30;;;4.70;;
46721;SDS011;32455;43.430;23.136;2023-07-20T21:49:45;7.38;;;5.05;;
46721;SDS011;32455;43.430;23.136;2023-07-20T21:52:31;5.40;;;4.47;;
46721;SDS011;32455;43.430;23.136;2023-07-20T21:55:16;8.68;;;5.57;;
46721;SDS011;32455;43.430;23.136;2023-07-20T21:58:05;5.72;;;4.90;;
46721;SDS011;32455;43.430;23.136;2023-07-20T22:00:53;6.57;;;4.30;;
46721;SDS011;32455;43.430;23.136;2023-07-20T22:03:40;9.82;;;5.00;;
46721;SDS011;32455;43.430;23.136;2023-07-20T22:06:26;5.32;;;4.50;;
46721;SDS011;32455;43.430;23.136;2023-07-20T22:09:17;5.57;;;4.57;;
46721;SDS011;32455;43.430;23.136;2023-07-20T22:12:02;7.68;;;5.00;;
46721;SDS011;32455;43.430;23.136;2023-07-20T22:14:52;6.70;;;4.80;;
46721;SDS011;32455;43.430;23.136;2023-07-20T22:17:41;7.75;;;4.68;;
46721;SDS011;32455;43.430;23.136;2023-07-20T22:20:29;4.90;;;4.38;;
46721;SDS011;32455;43.430;23.136;2023-07-20T22:23:14;5.82;;;4.60;;
46721;SDS011;32455;43.430;23.136;2023-07-20T22:25:59;7.75;;;5.03;;
46721;SDS011;32455;43.430;23.136;2023-07-20T22:28:45;6.57;;;4.53;;
46721;SDS011;32455;43.430;23.136;2023-07-20T22:31:30;9.40;;;5.10;;
46721;SDS011;32455;43.430;23.136;2023-07-20T22:34:16;6.18;;;5.13;;
46721;SDS011;32455;43.430;23.136;2023-07-20T22:37:05;6.60;;;5.05;;
46721;SDS011;32455;43.430;23.136;2023-07-20T22:39:50;5.20;;;4.80;;
46721;SDS011;32455;43.430;23.136;2023-07-20T22:42:36;9.02;;;5.60;;
46721;SDS011;32455;43.430;23.136;2023-07-20T22:45:22;8.57;;;5.15;;
46721;SDS011;32455;43.430;23.136;2023-07-20T22:48:07;5.57;;;4.40;;
46721;SDS011;32455;43.430;23.136;2023-07-20T22:50:53;9.02;;;4.93;;
46721;SDS011;32455;43.430;23.136;2023-07-20T22:53:41;9.32;;;4.25;;
46721;SDS011;32455;43.430;23.136;2023-07-20T22:56:27;9.23;;;4.32;;
46721;SDS011;32455;43.430;23.136;2023-07-20T22:59:13;7.15;;;4.45;;
46721;SDS011;32455;43.430;23.136;2023-07-20T23:01:59;7.00;;;4.00;;
46721;SDS011;32455;43.430;23.136;2023-07-20T23:04:45;6.65;;;4.32;;
46721;SDS011;32455;43.430;23.136;2023-07-20T23:07:31;6.65;;;4.03;;
46721;SDS011;32455;43.430;23.136;2023-07-20T23:10:17;5.20;;;4.10;;
46721;SDS011;32455;43.430;23.136;2023-07-20T23:13:03;7.32;;;4.28;;
46721;SDS011;32455;43.430;23.136;2023-07-20T23:15:48;7.70;;;4.80;;
46721;SDS011;32455;43.430;23.136;2023-07-20T23:18:34;6.15;;;4.50;;
46721;SDS011;32455;43.430;23.136;2023-07-20T23:21:20;5.43;;;4.40;;
46721;SDS011;32455;43.430;23.136;2023-07-20T23:24:06;7.30;;;4.65;;
46721;SDS011;32455;43.430;23.136;2023-07-20T23:26:50;7.53;;;4.82;;
46721;SDS011;32455;43.430;23.136;2023-07-20T23:29:37;5.53;;;4.25;;
46721;SDS011;32455;43.430;23.136;2023-07-20T23:32:22;5.93;;;4.82;;
46721;SDS011;32455;43.430;23.136;2023-07-20T23:35:08;5.82;;;4.18;;
46721;SDS011;32455;43.430;23.136;2023-07-20T23:37:57;5.93;;;4.50;;
46721;SDS011;32455;43.430;23.136;2023-07-20T23:40:46;5.97;;;4.37;;
46721;SDS011;32455;43.430;23.136;2023-07-20T23:43:34;5.90;;;4.00;;
46721;SDS011;32455;43.430;23.136;2023-07-20T23:46:20;7.93;;;4.72;;
46721;SDS011;32455;43.430;23.136;2023-07-20T23:49:08;8.20;;;4.00;;
46721;SDS011;32455;43.430;23.136;2023-07-20T23:51:58;5.07;;;3.75;;
46721;SDS011;32455;43.430;23.136;2023-07-20T23:54:44;8.25;;;4.03;;
46721;SDS011;32455;43.430;23.136;2023-07-20T23:57:30;5.50;;;4.00;;
